Time;durP1;ratioP1;P1;durP2;ratioP2;P2;SDS_P1;SDS_P2;PMS_P1;PMS_P2;Temp;Humidity;BMP_temperature;BMP_pressure;BME280_temperature;BME280_humidity;BME280_pressure;Samples;Min_cycle;Max_cycle;Signal;HPM_P1;HPM_P2
2022/05/13 00:02:24;;;;;;;22.65;7.57;;;;;;;15.02;62.60;101103.25;4991716;28;121945;-75
2022/05/13 00:04:49;;;;;;;21.00;7.10;;;;;;;14.97;62.47;101095.63;4987494;28;120546;-76
2022/05/13 00:07:17;;;;;;;17.38;7.15;;;;;;;14.96;62.67;101096.84;4990863;28;120420;-75
2022/05/13 00:10:00;;;;;;;22.33;7.30;;;;;;;14.93;62.94;101092.28;4983125;28;122694;-76
2022/05/13 00:12:31;;;;;;;21.40;7.15;;;;;;;14.93;62.85;101095.03;4989908;28;119558;-76
2022/05/13 00:14:58;;;;;;;21.05;7.75;;;;;;;14.96;62.26;101102.38;4971611;28;120485;-75
2022/05/13 00:17:24;;;;;;;17.95;7.20;;;;;;;14.92;62.60;101105.31;4990491;28;119922;-75
2022/05/13 00:19:53;;;;;;;23.88;7.40;;;;;;;14.96;62.39;101114.19;4990276;28;119660;-75
2022/05/13 00:22:19;;;;;;;21.83;7.40;;;;;;;14.96;62.52;101110.66;4984388;28;121762;-75
2022/05/13 00:24:45;;;;;;;20.63;8.32;;;;;;;14.91;62.45;101103.03;5004657;28;122778;-76
2022/05/13 00:27:11;;;;;;;25.08;7.72;;;;;;;14.96;62.74;101107.91;5006668;28;122309;-76
2022/05/13 00:29:37;;;;;;;20.98;8.38;;;;;;;14.88;63.12;101088.13;4986825;28;123085;-76
2022/05/13 00:32:03;;;;;;;26.98;7.65;;;;;;;14.98;62.69;101105.44;4996903;28;121475;-76
2022/05/13 00:34:29;;;;;;;23.00;7.20;;;;;;;14.98;63.04;101095.16;5006494;28;122207;-75
2022/05/13 00:36:54;;;;;;;23.17;8.15;;;;;;;14.90;62.66;101080.13;4943756;28;122730;-75
2022/05/13 00:39:20;;;;;;;19.42;7.70;;;;;;;14.90;62.43;101077.38;4972124;28;120044;-75
2022/05/13 00:41:46;;;;;;;18.80;7.03;;;;;;;14.93;62.92;101081.97;4979825;28;121784;-75
2022/05/13 00:44:13;;;;;;;24.38;8.45;;;;;;;14.96;62.72;101088.56;4978041;28;123683;-75
2022/05/13 00:46:38;;;;;;;21.75;8.45;;;;;;;14.94;62.55;101094.56;4994818;28;120346;-76
2022/05/13 00:49:11;;;;;;;22.02;8.18;;;;;;;14.96;62.76;101088.56;4987849;28;123236;-76
2022/05/13 00:51:41;;;;;;;18.67;7.55;;;;;;;14.90;62.50;101085.66;4980502;28;119606;-75
2022/05/13 00:54:08;;;;;;;20.15;7.60;;;;;;;14.93;62.96;101081.97;5008077;28;119378;-75
2022/05/13 00:56:35;;;;;;;20.02;7.65;;;;;;;14.91;62.52;101072.66;4954606;28;123181;-76
2022/05/13 00:59:04;;;;;;;17.52;7.40;;;;;;;14.95;62.88;101087.03;4973542;28;120273;-75
2022/05/13 01:01:30;;;;;;;18.02;7.38;;;;;;;14.91;62.98;101070.66;4989932;28;120143;-75
2022/05/13 01:04:07;;;;;;;14.88;7.57;;;;;;;14.91;62.96;101065.13;4985393;28;120357;-76
2022/05/13 01:06:34;;;;;;;23.73;7.75;;;;;;;14.94;62.52;101071.69;4980441;28;119865;-76
2022/05/13 01:09:03;;;;;;;20.30;7.95;;;;;;;14.98;62.28;101072.28;4990253;28;121026;-75
2022/05/13 01:11:33;;;;;;;23.95;7.75;;;;;;;14.93;62.37;101056.38;4969827;28;120217;-75
2022/05/13 01:14:04;;;;;;;21.58;7.85;;;;;;;14.94;62.75;101066.94;5002384;27;119822;-76
2022/05/13 01:18:04;;;;;;;18.90;7.93;;;;;;;14.98;62.40;101077.81;4972994;28;119950;-75
2022/05/13 01:19:15;;;;;;;17.73;9.00;;;;;;;14.95;62.72;101062.19;4988792;28;120659;-75
2022/05/13 01:21:41;;;;;;;19.38;8.38;;;;;;;14.97;62.66;101065.22;4977466;28;120240;-75
2022/05/13 01:24:07;;;;;;;17.95;7.88;;;;;;;15.01;63.16;101071.34;4976038;28;122913;-75
2022/05/13 01:26:35;;;;;;;21.67;8.50;;;;;;;14.98;62.46;101052.94;4976816;28;119599;-75
2022/05/13 01:29:02;;;;;;;18.65;8.38;;;;;;;15.02;62.66;101057.06;4978244;28;121005;-75
2022/05/13 01:31:38;;;;;;;18.33;8.50;;;;;;;15.02;62.43;101059.81;5007780;28;120723;-76
2022/05/13 01:34:10;;;;;;;16.95;7.78;;;;;;;15.02;62.55;101067.34;4994375;28;119830;-76
2022/05/13 01:36:37;;;;;;;25.13;8.57;;;;;;;15.01;62.45;101055.53;4959558;28;121936;-75
2022/05/13 01:39:03;;;;;;;21.75;7.93;;;;;;;14.98;62.82;101058.47;4989465;28;119811;-76
2022/05/13 01:41:29;;;;;;;22.90;8.40;;;;;;;15.00;62.46;101056.75;4989824;28;119754;-76
2022/05/13 01:43:55;;;;;;;16.65;8.85;;;;;;;15.00;62.91;101054.00;4973480;28;120172;-75
2022/05/13 01:46:22;;;;;;;20.38;8.55;;;;;;;15.01;62.68;101046.47;4970709;28;119912;-75
2022/05/13 01:48:49;;;;;;;19.13;8.52;;;;;;;14.99;62.76;101052.47;4972679;28;121993;-75
2022/05/13 01:51:15;;;;;;;19.35;9.00;;;;;;;14.92;62.89;101041.78;4967819;28;123096;-76
2022/05/13 01:53:41;;;;;;;17.83;8.48;;;;;;;14.86;62.52;101034.59;4976586;28;122182;-75
2022/05/13 01:56:07;;;;;;;20.45;9.52;;;;;;;14.85;62.44;101030.31;4976441;28;123326;-75
2022/05/13 01:58:33;;;;;;;18.60;9.80;;;;;;;14.85;62.53;101035.84;4989441;28;120066;-76
2022/05/13 02:01:04;;;;;;;26.52;9.98;;;;;;;14.83;62.63;101032.78;4962264;28;122417;-75
2022/05/13 02:03:45;;;;;;;21.00;9.10;;;;;;;14.80;62.95;101028.22;4939910;28;122621;-75
2022/05/13 02:06:17;;;;;;;20.00;9.53;;;;;;;14.73;63.03;101027.34;4973651;28;119939;-75
2022/05/13 02:08:43;;;;;;;23.98;10.43;;;;;;;14.66;63.00;101019.38;4980550;28;119551;-75
2022/05/13 02:11:09;;;;;;;26.63;9.90;;;;;;;14.70;62.94;101028.28;4962719;28;119942;-75
2022/05/13 02:13:35;;;;;;;20.95;9.57;;;;;;;14.67;63.14;101018.19;4977767;28;119858;-76
2022/05/13 02:16:01;;;;;;;24.45;9.60;;;;;;;14.74;63.68;101019.81;4972335;28;122839;-75
2022/05/13 02:18:27;;;;;;;21.30;9.90;;;;;;;14.66;63.69;101002.06;4990878;28;119927;-75
2022/05/13 02:20:52;;;;;;;22.73;9.65;;;;;;;14.71;63.90;101012.47;4991937;28;119631;-75
2022/05/13 02:23:20;;;;;;;25.25;10.10;;;;;;;14.74;63.45;101019.81;4966886;28;121866;-75
2022/05/13 02:25:46;;;;;;;25.08;10.05;;;;;;;14.80;63.15;101017.16;4984154;28;119997;-75
2022/05/13 02:28:12;;;;;;;24.83;10.20;;;;;;;14.76;63.37;101025.63;4989244;28;119954;-75
2022/05/13 02:30:37;;;;;;;21.75;10.18;;;;;;;14.73;63.56;101010.00;4956487;28;123074;-75
2022/05/13 02:33:03;;;;;;;22.92;9.68;;;;;;;14.73;63.49;101007.25;4990374;28;120297;-76
2022/05/13 02:35:28;;;;;;;24.73;10.00;;;;;;;14.79;63.92;101005.34;4961299;28;121825;-75
2022/05/13 02:37:54;;;;;;;24.85;10.63;;;;;;;14.68;63.49;100997.63;4989762;28;120441;-75
2022/05/13 02:41:11;;;;;;;19.58;9.38;;;;;;;14.73;64.13;100994.22;4973971;28;122048;-75
2022/05/13 02:43:07;;;;;;;22.77;10.43;;;;;;;14.80;63.66;101001.38;4985776;28;123622;-76
2022/05/13 02:45:33;;;;;;;20.30;9.73;;;;;;;14.83;63.51;101005.19;4958066;28;120475;-75
2022/05/13 02:47:58;;;;;;;19.50;9.45;;;;;;;14.76;63.78;100983.44;4969615;28;121876;-76
2022/05/13 02:50:25;;;;;;;21.38;10.07;;;;;;;14.83;63.92;100988.59;4989950;28;120594;-75
2022/05/13 02:52:52;;;;;;;24.58;9.52;;;;;;;14.81;63.52;100986.31;5010984;28;119799;-75
2022/05/13 02:55:19;;;;;;;21.73;10.25;;;;;;;14.81;63.63;100982.78;4958946;28;121981;-75
2022/05/13 02:57:48;;;;;;;28.77;9.85;;;;;;;14.78;63.45;100965.16;5010048;28;119425;-76
2022/05/13 03:00:14;;;;;;;25.75;10.80;;;;;;;14.79;63.79;100977.75;4992506;28;120504;-75
2022/05/13 03:02:40;;;;;;;28.58;10.23;;;;;;;14.73;63.35;100960.31;4990451;28;125834;-75
2022/05/13 03:05:05;;;;;;;20.08;10.05;;;;;;;14.78;63.36;100967.16;4972672;28;120101;-76
2022/05/13 03:07:31;;;;;;;20.35;10.27;;;;;;;14.74;63.67;100964.59;4974824;28;122834;-75
2022/05/13 03:09:57;;;;;;;23.50;10.15;;;;;;;14.76;63.75;100955.84;4968172;28;123586;-75
2022/05/13 03:12:23;;;;;;;23.80;10.43;;;;;;;14.69;63.54;100957.72;4974551;28;120498;-75
2022/05/13 03:14:48;;;;;;;20.92;10.05;;;;;;;14.71;63.62;100943.44;5010505;27;120156;-75
2022/05/13 03:17:14;;;;;;;22.98;10.63;;;;;;;14.76;63.78;100953.06;4992453;28;119790;-75
2022/05/13 03:19:40;;;;;;;20.17;9.48;;;;;;;14.71;63.95;100946.22;4959415;28;122494;-75
2022/05/13 03:22:06;;;;;;;22.15;9.77;;;;;;;14.78;64.20;100947.84;4971905;28;123620;-75
2022/05/13 03:24:33;;;;;;;24.13;10.18;;;;;;;14.80;63.73;100942.59;4988161;28;119664;-75
2022/05/13 03:26:59;;;;;;;20.73;10.65;;;;;;;14.79;63.60;100935.56;4987030;28;120333;-75
2022/05/13 03:29:24;;;;;;;18.17;9.95;;;;;;;14.71;63.91;100933.16;5007604;28;120199;-75
2022/05/13 03:31:50;;;;;;;23.58;10.77;;;;;;;14.78;63.42;100937.56;5009419;28;120398;-75
2022/05/13 03:34:16;;;;;;;24.17;10.32;;;;;;;14.74;63.75;100931.47;5008318;28;119756;-75
2022/05/13 03:36:44;;;;;;;21.38;10.63;;;;;;;14.78;63.46;100945.06;5007526;28;119843;-75
2022/05/13 03:39:10;;;;;;;18.70;10.50;;;;;;;14.73;63.41;100936.22;4977332;28;120131;-75
2022/05/13 03:41:35;;;;;;;20.77;10.90;;;;;;;14.73;63.78;100952.78;5008622;28;119913;-75
2022/05/13 03:44:01;;;;;;;23.42;10.98;;;;;;;14.77;64.05;100949.06;4974304;28;119735;-75
2022/05/13 03:46:26;;;;;;;18.27;10.40;;;;;;;14.77;63.97;100943.56;4956305;28;119886;-75
2022/05/13 03:48:52;;;;;;;19.83;10.68;;;;;;;14.87;64.05;100942.22;4973462;28;123606;-75
2022/05/13 03:51:22;;;;;;;21.45;10.73;;;;;;;14.86;64.52;100944.22;4987750;28;119789;-75
2022/05/13 03:53:47;;;;;;;19.95;9.82;;;;;;;14.92;63.91;100947.13;4971617;28;120272;-75
2022/05/13 03:56:15;;;;;;;26.40;10.52;;;;;;;14.93;63.72;100941.13;4974265;28;121876;-75
2022/05/13 03:58:42;;;;;;;18.08;10.45;;;;;;;14.91;64.00;100938.06;4990287;28;120228;-75
2022/05/13 04:01:07;;;;;;;22.05;10.80;;;;;;;14.91;64.17;100931.78;4982351;28;119881;-75
2022/05/13 04:03:33;;;;;;;19.17;10.30;;;;;;;15.04;64.17;100957.13;4939122;28;119629;-76
2022/05/13 04:08:58;;;;;;;;;;;;;;;15.04;63.50;100948.84;4978733;28;119970;-75
2022/05/13 04:11:24;;;;;;;26.42;11.15;;;;;;;15.05;63.50;100950.34;4991627;28;119622;-75
2022/05/13 04:16:50;;;;;;;18.20;10.07;;;;;;;15.04;63.54;100938.53;4948817;28;122744;-75
2022/05/13 04:19:16;;;;;;;25.35;10.75;;;;;;;15.09;63.14;100933.59;4970845;28;120227;-75
2022/05/13 04:21:46;;;;;;;23.13;10.15;;;;;;;15.16;63.74;100945.06;4956358;28;122058;-75
2022/05/13 04:24:18;;;;;;;22.27;10.25;;;;;;;15.11;63.49;100936.63;4993138;28;119951;-75
2022/05/13 04:26:45;;;;;;;18.80;10.00;;;;;;;15.21;63.35;100938.84;4976657;28;119415;-75
2022/05/13 04:29:11;;;;;;;20.58;10.32;;;;;;;15.19;63.57;100933.03;4986963;28;120133;-75
2022/05/13 04:31:39;;;;;;;19.63;9.70;;;;;;;15.25;63.56;100939.41;4996745;28;119712;-75
2022/05/13 04:34:06;;;;;;;17.92;10.35;;;;;;;15.24;63.42;100931.59;4991319;28;122834;-75
2022/05/13 04:36:32;;;;;;;19.20;10.18;;;;;;;15.31;63.83;100939.50;5003937;28;120216;-76
2022/05/13 04:38:58;;;;;;;17.75;10.35;;;;;;;15.28;63.55;100937.72;4990726;27;120059;-75
2022/05/13 04:44:11;;;;;;;18.63;9.57;;;;;;;15.33;63.57;100946.09;4974249;28;123458;-75
2022/05/13 04:46:37;;;;;;;17.73;9.90;;;;;;;15.35;63.71;100945.59;5000391;28;120019;-76
2022/05/13 04:49:03;;;;;;;18.45;10.15;;;;;;;15.34;63.97;100942.06;5006617;28;120121;-75
2022/05/13 04:51:29;;;;;;;20.52;10.10;;;;;;;15.36;63.60;100939.59;4997566;28;120008;-75
2022/05/13 04:53:56;;;;;;;17.52;10.57;;;;;;;15.37;63.42;100937.59;5009602;28;119709;-75
2022/05/13 04:56:23;;;;;;;17.30;9.57;;;;;;;15.38;63.52;100939.16;4990347;28;123379;-75
2022/05/13 04:58:49;;;;;;;20.13;9.95;;;;;;;15.38;63.76;100919.81;5014677;27;120063;-75
2022/05/13 05:01:17;;;;;;;14.57;8.23;;;;;;;15.41;63.38;100934.66;5012928;27;119943;-76
2022/05/13 05:03:45;;;;;;;17.90;8.82;;;;;;;15.42;63.52;100931.44;4989304;28;122270;-75
2022/05/13 05:06:12;;;;;;;17.58;8.05;;;;;;;15.40;63.57;100930.38;5008897;28;120128;-75
2022/05/13 05:08:39;;;;;;;14.45;7.40;;;;;;;15.46;63.58;100950.56;5006270;28;120283;-75
2022/05/13 05:11:06;;;;;;;17.50;8.23;;;;;;;15.49;64.36;100955.91;4978304;27;121254;-75
2022/05/13 05:13:35;;;;;;;21.92;8.18;;;;;;;15.52;63.55;100948.66;5019902;27;119768;-76
2022/05/13 05:16:01;;;;;;;18.42;7.55;;;;;;;15.54;63.43;100946.19;5007893;28;119839;-75
2022/05/13 05:18:28;;;;;;;17.10;8.02;;;;;;;15.56;63.58;100938.91;5009880;28;119967;-75
2022/05/13 05:20:54;;;;;;;17.02;7.78;;;;;;;15.58;63.77;100952.25;4993741;28;121798;-75
2022/05/13 05:23:27;;;;;;;19.67;7.95;;;;;;;15.60;63.81;100941.53;5007448;28;120040;-75
2022/05/13 05:25:53;;;;;;;16.20;7.77;;;;;;;15.55;63.94;100933.88;4990238;28;119586;-75
2022/05/13 05:28:19;;;;;;;22.92;8.10;;;;;;;15.59;64.29;100938.00;4995434;28;120142;-76
2022/05/13 05:30:44;;;;;;;17.33;8.30;;;;;;;15.65;63.50;100935.34;4982483;28;119961;-75
2022/05/13 05:33:11;;;;;;;19.42;8.40;;;;;;;15.69;63.80;100944.19;4983783;28;122402;-75
2022/05/13 05:35:37;;;;;;;19.90;8.55;;;;;;;15.72;63.68;100936.94;4976496;28;122833;-75
2022/05/13 05:38:03;;;;;;;17.02;8.40;;;;;;;15.80;63.78;100947.13;4992224;28;120156;-75
2022/05/13 05:40:30;;;;;;;18.95;8.65;;;;;;;15.84;63.80;100952.44;4974061;28;121779;-75
2022/05/13 05:42:56;;;;;;;16.15;8.52;;;;;;;15.87;64.06;100945.97;5007491;28;123077;-75
2022/05/13 05:45:22;;;;;;;15.27;8.70;;;;;;;15.93;63.93;100953.13;4996690;27;120602;-75
2022/05/13 05:47:49;;;;;;;19.92;9.80;;;;;;;15.96;64.11;100943.09;4997176;28;122701;-75
2022/05/13 05:50:21;;;;;;;21.25;9.90;;;;;;;15.98;63.97;100942.59;4998487;27;122704;-75
2022/05/13 05:52:46;;;;;;;21.15;10.20;;;;;;;15.96;64.01;100934.78;5013905;27;121103;-75
2022/05/13 05:58:08;;;;;;;24.17;10.50;;;;;;;16.10;64.14;100936.00;4987754;28;119741;-75
2022/05/13 06:00:36;;;;;;;19.92;9.98;;;;;;;16.14;64.39;100936.56;4973234;28;122693;-75
2022/05/13 06:03:05;;;;;;;25.13;11.68;;;;;;;16.17;64.53;100930.81;4973356;28;122326;-75
2022/05/13 06:05:35;;;;;;;20.00;11.35;;;;;;;16.12;64.74;100925.97;4973661;28;120485;-75
2022/05/13 06:08:02;;;;;;;22.13;11.13;;;;;;;16.23;64.95;100922.56;4992727;28;119921;-75
2022/05/13 06:10:29;;;;;;;23.02;11.50;;;;;;;16.37;64.83;100937.59;4989631;28;122179;-75
2022/05/13 06:12:54;;;;;;;21.52;12.13;;;;;;;16.46;64.58;100935.44;4995719;28;119867;-75
2022/05/13 06:15:21;;;;;;;27.05;12.65;;;;;;;16.54;64.48;100936.53;4989193;28;120493;-75
2022/05/13 06:17:49;;;;;;;27.58;13.18;;;;;;;16.63;65.04;100937.66;4990365;28;119891;-75
2022/05/13 06:20:20;;;;;;;24.90;13.05;;;;;;;16.77;64.78;100939.59;4970702;28;122588;-75
2022/05/13 06:22:46;;;;;;;26.45;12.88;;;;;;;16.88;64.50;100931.44;5008699;27;120368;-76
2022/05/13 06:25:14;;;;;;;27.05;13.75;;;;;;;16.95;64.17;100944.09;4992606;28;119504;-75
2022/05/13 06:27:40;;;;;;;36.50;14.30;;;;;;;16.97;63.83;100939.56;4993655;28;120123;-75
2022/05/13 06:30:09;;;;;;;29.30;14.25;;;;;;;16.96;63.93;100940.81;5005681;28;120377;-75
2022/05/13 06:32:38;;;;;;;26.83;13.02;;;;;;;16.95;64.03;100944.09;4973381;28;119935;-75
2022/05/13 06:35:05;;;;;;;34.78;14.43;;;;;;;16.96;64.11;100943.59;4981479;28;122217;-75
2022/05/13 06:37:30;;;;;;;35.10;14.98;;;;;;;16.97;64.26;100939.56;4990240;28;119880;-75
2022/05/13 06:39:56;;;;;;;35.33;14.40;;;;;;;16.96;64.19;100921.44;5006014;27;119925;-75
2022/05/13 06:42:22;;;;;;;31.58;16.17;;;;;;;16.99;64.44;100934.31;5020568;27;120057;-75
2022/05/13 06:44:48;;;;;;;31.75;15.25;;;;;;;16.90;64.28;100926.16;4998567;28;120066;-75
2022/05/13 06:47:15;;;;;;;34.70;15.90;;;;;;;16.91;64.53;100927.69;4993922;27;122259;-75
2022/05/13 06:49:41;;;;;;;32.58;14.65;;;;;;;16.85;64.83;100937.94;4998933;27;122727;-75
2022/05/13 06:52:06;;;;;;;30.73;14.20;;;;;;;16.80;64.85;100931.09;4974060;28;119694;-75
2022/05/13 06:54:32;;;;;;;28.10;12.57;;;;;;;16.78;64.93;100936.34;4988687;27;122429;-75
2022/05/13 06:56:58;;;;;;;24.75;8.45;;;;;;;16.78;64.82;100946.66;4993759;27;123732;-75
2022/05/13 06:59:23;;;;;;;18.92;7.68;;;;;;;16.82;64.28;100950.75;4994288;27;122822;-75
2022/05/13 07:01:49;;;;;;;19.55;6.30;;;;;;;16.79;64.13;100950.97;5012385;27;121361;-76
2022/05/13 07:04:15;;;;;;;15.82;6.45;;;;;;;16.77;63.89;100964.53;5013648;27;120248;-75
2022/05/13 07:06:41;;;;;;;15.02;6.00;;;;;;;16.76;63.91;100965.78;4997624;27;122240;-76
2022/05/13 07:09:07;;;;;;;14.82;5.53;;;;;;;16.72;63.75;100951.38;5008677;27;122879;-76
2022/05/13 07:11:34;;;;;;;17.92;5.68;;;;;;;16.72;63.64;100951.38;4988838;28;119944;-75
2022/05/13 07:14:00;;;;;;;18.98;5.72;;;;;;;16.71;63.97;100938.78;5008002;28;120544;-75
2022/05/13 07:16:26;;;;;;;24.08;6.05;;;;;;;16.75;63.90;100950.41;4998911;28;123367;-75
2022/05/13 07:18:52;;;;;;;19.77;6.20;;;;;;;16.75;64.29;100959.47;5015497;27;119752;-75
2022/05/13 07:21:17;;;;;;;20.67;6.30;;;;;;;16.77;64.19;100965.28;5011026;27;123608;-75
2022/05/13 07:23:43;;;;;;;15.85;6.10;;;;;;;16.75;64.49;100967.78;4992853;27;121462;-75
2022/05/13 07:26:10;;;;;;;19.38;6.72;;;;;;;16.82;64.40;100977.72;4988064;28;121798;-75
2022/05/13 07:28:38;;;;;;;20.60;6.43;;;;;;;16.83;64.36;100968.16;5005727;27;120110;-75
2022/05/13 07:31:05;;;;;;;19.92;5.25;;;;;;;16.81;64.29;100965.88;5009474;27;119969;-75
2022/05/13 07:33:30;;;;;;;18.33;5.38;;;;;;;16.84;64.14;100975.97;5011718;27;122290;-75
2022/05/13 07:35:56;;;;;;;17.90;5.80;;;;;;;16.83;63.99;100959.84;5009693;27;120020;-75
2022/05/13 07:38:22;;;;;;;24.58;5.40;;;;;;;16.89;63.90;100955.13;5016277;27;120215;-75
2022/05/13 07:43:35;;;;;;;14.27;4.85;;;;;;;17.00;64.02;100960.75;5002621;27;120171;-75
2022/05/13 07:46:02;;;;;;;12.05;4.68;;;;;;;17.10;63.66;100955.84;5001965;27;121456;-76
2022/05/13 07:48:28;;;;;;;15.88;4.72;;;;;;;17.15;63.55;100950.34;5011213;27;120504;-76
2022/05/13 07:50:53;;;;;;;13.85;3.97;;;;;;;17.28;63.00;100968.63;4982303;27;119621;-76
2022/05/13 07:53:19;;;;;;;13.93;4.22;;;;;;;17.33;63.51;100957.56;4997541;28;121891;-75
2022/05/13 07:55:45;;;;;;;12.68;3.80;;;;;;;17.42;63.31;100954.63;5010027;27;120606;-75
2022/05/13 07:58:11;;;;;;;13.85;4.28;;;;;;;17.49;63.18;100956.19;5006303;27;120404;-75
2022/05/13 08:00:38;;;;;;;13.32;3.45;;;;;;;17.66;62.21;100951.53;4989359;28;121725;-76
2022/05/13 08:03:15;;;;;;;8.90;3.28;;;;;;;17.79;61.93;100957.47;4994528;27;120070;-76
2022/05/13 08:05:50;;;;;;;9.30;3.42;;;;;;;17.89;61.52;100957.28;5011208;27;121350;-75
2022/05/13 08:08:18;;;;;;;11.43;3.25;;;;;;;17.96;61.25;100954.03;5007226;27;122040;-75
2022/05/13 08:10:47;;;;;;;12.13;3.22;;;;;;;18.04;60.69;100952.34;5009879;27;120251;-75
2022/05/13 08:13:13;;;;;;;7.03;3.40;;;;;;;18.08;60.50;100953.63;5012023;27;121431;-75
2022/05/13 08:15:40;;;;;;;8.80;3.10;;;;;;;18.18;59.89;100954.16;5000402;28;123227;-75
2022/05/13 08:18:06;;;;;;;5.65;2.83;;;;;;;18.24;59.59;100951.44;4998639;28;120172;-75
2022/05/13 08:20:31;;;;;;;8.63;3.28;;;;;;;18.38;59.60;100959.56;5008121;27;121797;-76
2022/05/13 08:22:57;;;;;;;8.18;3.25;;;;;;;18.47;59.54;100950.28;5010880;28;120360;-76
2022/05/13 08:25:24;;;;;;;10.48;3.22;;;;;;;18.61;58.40;100954.88;5011434;28;120078;-75
2022/05/13 08:27:50;;;;;;;9.85;3.08;;;;;;;18.72;57.71;100961.78;4990637;28;123033;-75
2022/05/13 08:30:17;;;;;;;8.80;3.35;;;;;;;18.73;57.63;100952.94;5008684;28;120257;-75
2022/05/13 08:32:43;;;;;;;8.23;3.30;;;;;;;18.80;57.29;100958.00;4989366;27;121118;-76
2022/05/13 08:35:12;;;;;;;12.27;3.90;;;;;;;18.82;56.87;100949.91;4996529;27;123129;-75
2022/05/13 08:37:52;;;;;;;12.15;3.53;;;;;;;18.91;56.81;100952.47;5001861;27;121709;-76
2022/05/13 08:40:43;;;;;;;12.18;3.90;;;;;;;18.95;56.83;100958.56;4991916;28;121952;-75
2022/05/13 08:43:13;;;;;;;16.45;3.88;;;;;;;19.04;57.37;100959.56;5001439;28;119937;-75
2022/05/13 08:45:44;;;;;;;19.80;4.50;;;;;;;19.14;56.93;100958.06;4998401;28;120314;-75
2022/05/13 08:48:14;;;;;;;17.98;4.32;;;;;;;19.13;56.05;100956.53;4992502;28;123485;-75
2022/05/13 08:50:53;;;;;;;16.60;4.30;;;;;;;19.09;56.54;100961.59;4992934;28;120610;-75
2022/05/13 08:53:34;;;;;;;12.98;4.82;;;;;;;19.21;56.61;100965.94;4990509;28;121905;-75
2022/05/13 08:56:06;;;;;;;16.08;4.75;;;;;;;19.19;56.25;100969.22;5024530;27;120392;-76
2022/05/13 08:58:42;;;;;;;18.13;5.10;;;;;;;19.16;56.05;100967.41;4993518;28;119709;-75
2022/05/13 09:01:11;;;;;;;16.70;4.97;;;;;;;19.05;56.18;100949.97;5000267;28;121916;-75
2022/05/13 09:03:46;;;;;;;18.92;4.72;;;;;;;19.15;56.10;100967.94;4992006;28;122753;-75
2022/05/13 09:06:19;;;;;;;14.77;4.28;;;;;;;19.19;55.57;100966.44;5009598;28;119992;-75
2022/05/13 09:08:45;;;;;;;13.95;4.32;;;;;;;19.20;55.59;100953.28;4993448;28;121847;-76
2022/05/13 09:11:32;;;;;;;12.02;4.07;;;;;;;19.26;55.42;100954.81;5011001;28;119924;-75
2022/05/13 09:14:14;;;;;;;14.88;4.32;;;;;;;19.24;55.12;100954.56;4993496;28;121895;-75
2022/05/13 09:17:12;;;;;;;16.73;4.45;;;;;;;19.19;55.28;100960.13;4995329;28;120132;-76
2022/05/13 09:19:43;;;;;;;20.70;5.00;;;;;;;19.18;55.99;100964.16;4985888;28;120517;-75
2022/05/13 09:22:11;;;;;;;13.77;4.47;;;;;;;19.31;55.49;100961.63;5025187;27;121123;-76
2022/05/13 09:24:37;;;;;;;12.88;4.03;;;;;;;19.32;55.15;100955.56;5008123;27;120103;-76
2022/05/13 09:27:03;;;;;;;17.63;4.60;;;;;;;19.40;54.22;100961.41;4985517;28;119889;-76
2022/05/13 09:29:39;;;;;;;18.17;4.75;;;;;;;19.38;54.31;100961.13;5017475;27;119821;-76
2022/05/13 09:32:07;;;;;;;25.02;4.65;;;;;;;19.26;54.55;100959.63;4997792;28;119948;-76
2022/05/13 09:34:56;;;;;;;18.10;4.03;;;;;;;19.38;55.16;100972.25;5008616;28;122914;-76
2022/05/13 09:37:26;;;;;;;16.35;3.72;;;;;;;19.35;54.43;100964.91;4956263;28;123825;-76
2022/05/13 09:40:10;;;;;;;15.13;3.45;;;;;;;19.41;54.06;100976.06;4971544;27;120308;-78
2022/05/13 09:42:40;;;;;;;17.00;4.32;;;;;;;19.35;54.20;100973.25;4977373;28;121882;-75
2022/05/13 09:45:18;;;;;;;14.90;3.70;;;;;;;19.25;53.85;100972.00;4987754;28;120412;-76
2022/05/13 09:47:59;;;;;;;12.65;3.28;;;;;;;19.08;53.88;100971.22;4991416;28;119843;-76
2022/05/13 09:50:29;;;;;;;9.93;3.25;;;;;;;18.99;54.29;100986.88;4974871;28;120307;-75
2022/05/13 09:53:05;;;;;;;13.88;3.10;;;;;;;18.89;54.78;100980.00;4980446;28;123008;-75
2022/05/13 09:55:37;;;;;;;9.13;2.88;;;;;;;18.88;55.10;100981.25;4989231;28;120348;-75
2022/05/13 09:58:09;;;;;;;12.43;3.13;;;;;;;18.89;54.42;100968.13;4992792;27;120522;-75
2022/05/13 10:00:40;;;;;;;9.93;3.03;;;;;;;18.96;54.73;101003.78;4993408;28;119865;-75
2022/05/13 10:03:31;;;;;;;13.85;3.17;;;;;;;18.98;54.47;100996.47;5011692;28;119721;-75
2022/05/13 10:06:08;;;;;;;10.85;3.17;;;;;;;19.02;54.77;100999.75;4969906;28;122758;-76
2022/05/13 10:08:48;;;;;;;18.17;3.47;;;;;;;18.99;55.19;101003.53;4992964;28;120010;-76
2022/05/13 10:14:26;;;;;;;13.57;3.38;;;;;;;18.79;56.21;101006.50;4981970;28;121453;-76
2022/05/13 10:16:54;;;;;;;13.75;4.10;;;;;;;18.55;56.85;101012.44;5009507;28;119817;-76
2022/05/13 10:19:48;;;;;;;13.48;4.05;;;;;;;18.47;57.26;101019.72;5008450;28;120108;-75
2022/05/13 10:22:19;;;;;;;;;;;;;;;18.32;57.42;101011.56;5002653;27;119508;-76
2022/05/13 10:24:57;;;;;;;11.65;3.92;;;;;;;18.31;58.16;101012.06;4987064;27;120921;-75
2022/05/13 10:27:37;;;;;;;18.40;4.35;;;;;;;18.34;58.53;101009.03;5008162;27;120215;-75
2022/05/13 10:30:08;;;;;;;16.48;3.97;;;;;;;18.44;58.64;101009.59;4987282;27;120120;-75
2022/05/13 10:33:05;;;;;;;18.30;4.70;;;;;;;18.57;59.06;101007.13;4977394;27;123313;-75
2022/05/13 10:35:49;;;;;;;18.73;4.93;;;;;;;18.66;58.45;101006.19;4964714;28;123263;-75
2022/05/13 10:38:32;;;;;;;15.05;4.30;;;;;;;18.63;58.37;100999.63;4998848;27;120207;-75
2022/05/13 10:41:14;;;;;;;14.40;4.70;;;;;;;18.64;57.77;101000.38;4996819;28;121917;-75
2022/05/13 10:43:51;;;;;;;13.18;4.35;;;;;;;18.58;57.76;101010.69;4988930;27;121128;-75
2022/05/13 10:46:28;;;;;;;13.85;4.45;;;;;;;18.52;57.77;101015.44;5001685;27;120142;-75
2022/05/13 10:48:54;;;;;;;16.27;4.82;;;;;;;18.44;57.85;101008.81;4996554;27;120152;-75
2022/05/13 10:51:35;;;;;;;15.57;5.18;;;;;;;18.42;57.96;101009.31;4998780;27;119951;-75
2022/05/13 10:54:33;;;;;;;17.45;5.43;;;;;;;18.50;58.38;101020.75;5004217;27;120154;-75
2022/05/13 10:57:22;;;;;;;13.60;4.32;;;;;;;18.53;58.18;101014.19;5017388;27;121235;-76
2022/05/13 11:00:09;;;;;;;13.63;4.70;;;;;;;18.55;57.37;101020.78;4988591;27;120584;-75
2022/05/13 11:02:50;;;;;;;17.45;4.43;;;;;;;18.58;57.33;101019.00;4995982;27;122968;-75
2022/05/13 11:05:27;;;;;;;16.38;3.97;;;;;;;18.63;57.33;101015.53;5012918;27;119998;-75
2022/05/13 11:08:21;;;;;;;11.63;3.00;;;;;;;18.65;56.77;101010.22;5019202;27;122251;-75
2022/05/13 11:10:59;;;;;;;11.98;2.92;;;;;;;18.69;55.98;101017.09;5000375;27;122823;-76
2022/05/13 11:13:37;;;;;;;9.73;2.95;;;;;;;18.66;56.04;101020.06;5005284;27;119758;-76
2022/05/13 11:16:14;;;;;;;13.02;3.33;;;;;;;18.58;55.46;101032.91;4996152;27;120426;-75
2022/05/13 11:19:06;;;;;;;16.42;3.33;;;;;;;18.47;56.13;101030.06;5002447;27;124149;-76
2022/05/13 11:21:41;;;;;;;12.02;3.55;;;;;;;18.37;56.16;101016.38;5020210;27;121281;-76
2022/05/13 11:27:38;;;;;;;12.43;3.30;;;;;;;18.16;56.27;101031.63;4952103;27;123218;-75
2022/05/13 11:30:16;;;;;;;9.45;3.13;;;;;;;18.06;55.99;101042.19;4985514;28;120994;-75
2022/05/13 11:32:56;;;;;;;14.20;3.80;;;;;;;18.01;56.42;101044.91;4983159;27;122756;-76
2022/05/13 11:35:36;;;;;;;12.25;3.35;;;;;;;18.03;56.64;101053.50;5012832;27;122454;-76
2022/05/13 11:38:10;;;;;;;11.02;3.65;;;;;;;18.13;56.90;101043.72;5002190;27;119791;-75
2022/05/13 11:41:00;;;;;;;14.85;3.28;;;;;;;18.25;56.61;101039.78;4984086;28;123921;-75
2022/05/13 11:43:55;;;;;;;20.65;3.80;;;;;;;18.33;56.17;101046.41;5002743;27;120019;-75